createdAt,value
2022-08-29T06:19:55.028Z,15.50
2022-08-29T06:22:27.456Z,14.70
2022-08-29T06:25:27.975Z,16.40
2022-08-29T06:27:58.524Z,17.00
2022-08-29T06:30:32.196Z,16.10
2022-08-29T06:33:05.110Z,15.80
2022-08-29T06:35:37.976Z,15.20
2022-08-29T06:38:13.903Z,15.50
2022-08-29T06:40:46.895Z,14.00
2022-08-29T06:43:20.846Z,14.40
2022-08-29T06:45:53.264Z,14.80
2022-08-29T06:48:29.372Z,14.40
2022-08-29T06:51:04.367Z,14.90
2022-08-29T06:53:37.355Z,13.80
2022-08-29T06:56:11.541Z,14.90
2022-08-29T06:58:45.005Z,15.00
2022-08-29T07:01:21.935Z,13.10
2022-08-29T07:03:57.672Z,13.70
2022-08-29T07:06:32.688Z,13.30
2022-08-29T07:09:05.318Z,13.70
2022-08-29T07:11:41.224Z,14.60
2022-08-29T07:14:15.058Z,14.20
2022-08-29T07:16:48.976Z,12.00
2022-08-29T07:19:24.128Z,11.20
2022-08-29T07:21:59.117Z,12.50
2022-08-29T07:24:31.796Z,12.20
2022-08-29T07:27:04.468Z,11.60
2022-08-29T07:29:37.406Z,12.10
2022-08-29T07:32:10.229Z,10.50
2022-08-29T07:34:44.348Z,9.90
2022-08-29T07:37:19.232Z,9.70
2022-08-29T07:39:55.680Z,9.30
2022-08-29T07:42:28.166Z,8.00
2022-08-29T07:45:02.034Z,7.90
2022-08-29T07:47:35.048Z,8.20
2022-08-29T07:50:09.687Z,8.30
2022-08-29T07:52:42.037Z,7.40
2022-08-29T07:55:16.416Z,8.20
2022-08-29T07:57:51.896Z,7.20
2022-08-29T08:00:24.895Z,7.60
2022-08-29T08:02:59.510Z,7.20
2022-08-29T08:05:32.276Z,7.70
2022-08-29T08:08:15.115Z,7.40
2022-08-29T08:10:52.299Z,7.10
2022-08-29T08:13:29.778Z,7.60
2022-08-29T08:16:05.269Z,7.20
2022-08-29T08:18:38.626Z,7.00
2022-08-29T08:21:12.038Z,6.50
2022-08-29T08:23:45.478Z,6.40
2022-08-29T08:26:18.459Z,8.40
2022-08-29T08:28:53.683Z,6.20
2022-08-29T08:31:28.298Z,5.90
2022-08-29T08:34:00.798Z,5.70
2022-08-29T08:36:40.979Z,6.10
2022-08-29T08:41:57.658Z,5.30
2022-08-29T08:45:00.668Z,5.00
2022-08-29T08:47:36.868Z,5.80
2022-08-29T08:50:13.579Z,4.90
2022-08-29T08:52:52.308Z,5.20
2022-08-29T08:55:35.176Z,4.80
2022-08-29T08:58:16.037Z,5.10
2022-08-29T09:00:54.522Z,5.00
2022-08-29T09:03:51.447Z,5.10
2022-08-29T09:06:43.428Z,5.00
2022-08-29T09:09:27.062Z,4.60
2022-08-29T09:12:09.291Z,4.00
2022-08-29T09:14:56.869Z,4.50
2022-08-29T09:17:37.368Z,4.40
2022-08-29T09:20:15.088Z,3.90
2022-08-29T09:22:54.054Z,4.30
2022-08-29T09:25:30.527Z,4.10
2022-08-29T09:28:03.532Z,4.40
2022-08-29T09:30:37.948Z,4.10
2022-08-29T09:33:15.409Z,4.40
2022-08-29T09:35:52.773Z,4.60
2022-08-29T09:38:29.107Z,4.60
2022-08-29T09:41:04.236Z,4.60
2022-08-29T09:43:50.587Z,4.70
2022-08-29T09:46:25.887Z,4.80
2022-08-29T09:49:16.148Z,4.70
2022-08-29T09:51:50.808Z,6.30
2022-08-29T09:54:31.576Z,4.90
2022-08-29T09:57:10.824Z,4.40
2022-08-29T09:59:45.508Z,4.50
2022-08-29T10:02:29.555Z,5.30
2022-08-29T10:05:12.020Z,5.40
2022-08-29T10:07:53.618Z,4.60
2022-08-29T10:10:31.016Z,4.30
2022-08-29T10:13:10.746Z,3.70
2022-08-29T10:15:58.000Z,4.40
2022-08-29T10:18:43.341Z,4.60
2022-08-29T10:21:36.398Z,4.10
2022-08-29T10:24:26.649Z,4.40
2022-08-29T10:27:06.903Z,4.60
2022-08-29T10:29:56.808Z,4.20
2022-08-29T10:32:46.358Z,3.70
2022-08-29T10:35:26.328Z,3.90
2022-08-29T10:38:07.366Z,3.60
2022-08-29T10:41:41.601Z,3.90
2022-08-29T10:45:25.922Z,4.00
2022-08-29T10:49:04.528Z,3.50
2022-08-29T10:56:22.939Z,3.80
2022-08-29T11:00:03.037Z,3.90
2022-08-29T11:03:59.083Z,4.30
2022-08-29T11:07:37.208Z,4.10
2022-08-29T11:11:37.463Z,4.00
2022-08-29T11:18:22.296Z,4.30
2022-08-29T11:22:02.949Z,3.90
2022-08-29T11:25:42.309Z,4.30
2022-08-29T11:39:41.200Z,3.70
2022-08-29T11:43:20.086Z,3.50
2022-08-29T11:46:56.888Z,4.30
2022-08-29T11:50:37.458Z,3.80
2022-08-29T12:09:38.277Z,3.50
2022-08-29T12:13:12.338Z,3.90
2022-08-29T12:16:53.764Z,3.40
2022-08-29T12:20:33.965Z,3.50
2022-08-29T12:24:09.588Z,3.70
2022-08-29T12:28:08.724Z,3.20
2022-08-29T12:41:59.026Z,3.30
2022-08-29T12:45:33.218Z,3.50
2022-08-29T12:49:29.271Z,3.50
2022-08-29T12:53:09.558Z,3.30
2022-08-29T13:00:20.721Z,3.30
2022-08-29T13:04:04.617Z,3.20
2022-08-29T13:07:36.178Z,2.60
2022-08-29T13:11:13.879Z,2.90
2022-08-29T13:14:47.623Z,3.30
2022-08-29T13:46:17.285Z,3.10
2022-08-29T13:49:52.308Z,3.00
2022-08-29T13:53:25.437Z,3.30
2022-08-29T13:57:01.214Z,3.50
2022-08-29T14:14:12.466Z,3.40
2022-08-29T14:17:38.136Z,2.60
2022-08-29T14:21:11.599Z,2.70
2022-08-29T14:24:53.330Z,3.00
2022-08-29T14:28:26.506Z,3.10
2022-08-29T14:31:50.107Z,2.50
2022-08-29T14:35:09.148Z,3.00
2022-08-29T14:38:35.996Z,3.10
2022-08-29T14:42:02.216Z,3.20
2022-08-29T14:45:35.659Z,3.40
2022-08-29T14:49:08.602Z,3.60
2022-08-29T14:52:41.577Z,3.80
2022-08-29T14:56:37.217Z,3.10
2022-08-29T15:00:15.652Z,3.20
2022-08-29T15:17:06.128Z,3.40
2022-08-29T15:20:42.519Z,2.70
2022-08-29T15:24:18.286Z,3.20
2022-08-29T15:27:44.307Z,3.90
2022-08-29T15:31:17.729Z,3.30
2022-08-29T15:34:47.849Z,3.30
2022-08-29T15:58:13.471Z,3.50
2022-08-29T16:01:41.217Z,2.70
2022-08-29T16:05:14.728Z,2.80
2022-08-29T16:09:01.936Z,3.00
2022-08-29T16:19:11.116Z,2.70
2022-08-29T16:22:44.927Z,3.10
2022-08-29T16:26:09.953Z,2.80
2022-08-29T16:29:42.986Z,2.70
2022-08-29T17:07:16.076Z,3.40
2022-08-29T17:10:49.056Z,3.50
2022-08-29T17:14:24.078Z,3.10
2022-08-29T17:17:57.047Z,3.30
2022-08-29T17:21:32.636Z,3.60
2022-08-29T17:25:08.018Z,10.00
2022-08-29T17:28:42.256Z,3.30
2022-08-29T17:32:17.676Z,3.50
2022-08-29T17:56:22.377Z,3.90
2022-08-29T17:59:56.352Z,3.20
2022-08-29T18:03:26.967Z,3.50
2022-08-29T18:20:20.608Z,4.30
2022-08-29T18:24:00.843Z,3.00
2022-08-29T18:27:46.056Z,3.40
2022-08-29T18:31:43.220Z,4.00
2022-08-29T18:35:21.138Z,3.60
2022-08-29T19:06:11.968Z,3.50
2022-08-29T19:09:45.568Z,3.80
2022-08-29T19:13:32.706Z,4.00
2022-08-29T19:27:33.024Z,3.60
2022-08-29T19:31:11.002Z,4.30
2022-08-29T19:34:54.150Z,3.60
2022-08-29T19:59:04.599Z,4.70
2022-08-29T20:02:41.192Z,3.80
2022-08-29T20:06:18.281Z,4.70
2022-08-29T20:10:32.307Z,3.80
2022-08-29T20:20:34.937Z,4.10
2022-08-29T20:24:11.340Z,3.50
2022-08-29T20:27:49.309Z,4.00
2022-08-29T20:41:15.600Z,3.60
2022-08-29T20:44:58.119Z,4.30
2022-08-29T20:48:31.482Z,3.40
2022-08-29T20:52:06.598Z,3.50
2022-08-29T20:55:41.387Z,3.90
2022-08-29T21:02:09.300Z,3.40
2022-08-29T21:05:48.127Z,4.40
2022-08-29T21:09:14.345Z,4.20
2022-08-29T21:22:37.126Z,3.30
2022-08-29T21:26:13.189Z,4.00
2022-08-29T21:29:48.296Z,3.30
2022-08-29T21:39:48.229Z,3.90
2022-08-29T21:43:21.717Z,4.00
2022-08-29T21:49:53.439Z,3.90
2022-08-29T21:53:26.665Z,3.60
2022-08-29T21:56:59.855Z,3.50
2022-08-29T22:03:58.198Z,3.40
2022-08-29T22:07:33.468Z,4.00
2022-08-29T22:11:14.021Z,3.80
2022-08-29T22:15:03.403Z,4.40
2022-08-29T22:18:36.620Z,4.30
2022-08-29T22:22:09.918Z,4.80
2022-08-29T22:25:43.019Z,5.10
2022-08-29T22:42:28.048Z,5.60
2022-08-29T22:46:02.099Z,5.90
2022-08-29T22:49:35.287Z,5.30
2022-08-29T22:53:09.107Z,4.80
2022-08-29T23:06:38.108Z,5.30
2022-08-29T23:10:13.754Z,5.00
2022-08-29T23:13:50.978Z,5.00
2022-08-29T23:24:03.947Z,5.20
2022-08-29T23:27:35.318Z,5.00
2022-08-29T23:31:05.681Z,5.00
2022-08-29T23:34:36.716Z,5.20
2022-08-29T23:44:32.715Z,5.30
2022-08-29T23:48:07.346Z,4.90
2022-08-29T23:51:44.475Z,4.40
2022-08-29T23:55:18.698Z,4.40
2022-08-29T23:58:51.898Z,4.70
